Time;durP1;ratioP1;P1;durP2;ratioP2;P2;SDS_P1;SDS_P2;PMS_P1;PMS_P2;Temp;Humidity;BMP_temperature;BMP_pressure;BME280_temperature;BME280_humidity;BME280_pressure;Samples;Min_cycle;Max_cycle;Signal;HPM_P1;HPM_P2
2021/05/08 00:00:06;;;;;;;;;9.00;9.00;;;;;17.36;60.54;100890.63;4918463;29;9016;-74
2021/05/08 00:03:03;;;;;;;;;8.00;8.00;;;;;17.30;61.10;100886.50;4915295;29;9042;-76
2021/05/08 00:05:45;;;;;;;;;10.50;10.50;;;;;17.25;61.36;100884.00;4913507;29;9130;-76
2021/05/08 00:08:28;;;;;;;;;7.67;7.67;;;;;17.26;61.40;100873.66;4911368;29;8873;-75
2021/05/08 00:11:23;;;;;;;;;10.00;10.00;;;;;17.22;61.56;100868.00;4915797;29;8946;-75
2021/05/08 00:14:19;;;;;;;;;7.33;7.33;;;;;17.11;61.76;100875.38;4915381;29;8943;-75
2021/05/08 00:17:15;;;;;;;;;10.00;10.00;;;;;17.22;61.12;100863.22;4902463;29;9034;-75
2021/05/08 00:20:13;;;;;;;;;8.00;8.00;;;;;17.10;61.61;100863.41;4902554;29;9080;-75
2021/05/08 00:23:09;;;;;;;;;8.33;8.33;;;;;17.09;61.61;100869.34;4890946;29;9225;-75
2021/05/08 00:26:04;;;;;;;;;6.33;6.33;;;;;17.14;61.40;100866.25;4914812;29;9064;-75
2021/05/08 00:29:00;;;;;;;;;7.67;7.67;;;;;17.12;61.38;100868.63;4877021;29;9099;-75
2021/05/08 00:31:56;;;;;;;;;5.33;5.33;;;;;17.08;61.37;100873.31;4901622;29;9181;-75
2021/05/08 00:34:52;;;;;;;;;8.33;8.33;;;;;17.08;61.50;100860.16;4914943;29;8939;-74
2021/05/08 00:37:19;;;;;;;;;11.00;11.00;;;;;17.03;61.83;100859.66;4916109;29;9105;-75
2021/05/08 00:40:14;;;;;;;;;9.00;9.00;;;;;17.12;61.64;100857.44;4914975;29;9069;-75
2021/05/08 00:43:10;;;;;;;;;7.00;7.00;;;;;17.11;61.38;100856.63;4914917;29;9256;-75
2021/05/08 00:45:38;;;;;;;;;7.67;7.67;;;;;17.05;61.53;100863.69;4930598;29;9207;-76
2021/05/08 00:48:19;;;;;;;;;6.33;6.33;;;;;17.06;60.97;100868.09;4915578;29;9100;-75
2021/05/08 00:51:15;;;;;;;;;7.33;7.33;;;;;17.04;60.61;100878.84;4913969;29;9093;-75
2021/05/08 00:53:42;;;;;;;;;7.25;7.25;;;;;17.09;60.74;100889.69;4916201;29;9180;-75
2021/05/08 00:56:25;;;;;;;;;7.25;7.25;;;;;17.10;60.38;100893.31;4918183;29;8895;-75
2021/05/08 00:59:21;;;;;;;;;3.50;3.50;;;;;17.05;60.31;100899.22;4916799;29;8855;-75
2021/05/08 01:02:16;;;;;;;;;6.75;6.75;;;;;17.07;61.27;100905.22;4918127;29;8962;-76
2021/05/08 01:05:13;;;;;;;;;6.00;6.00;;;;;17.10;62.00;100907.28;4918140;29;8993;-77
2021/05/08 01:08:08;;;;;;;;;6.33;6.33;;;;;16.96;62.61;100905.03;4905493;29;8954;-76
2021/05/08 01:11:05;;;;;;;;;8.00;8.00;;;;;17.03;62.58;100916.34;4917893;29;8979;-76
2021/05/08 01:13:38;;;;;;;;;8.25;8.25;;;;;17.06;62.76;100924.00;4919164;29;8970;-76
2021/05/08 01:16:34;;;;;;;;;7.33;7.33;;;;;17.16;62.75;100930.94;4918018;29;8875;-76
2021/05/08 01:19:32;;;;;;;;;6.33;6.33;;;;;16.95;62.98;100936.94;4918042;29;9070;-77
2021/05/08 01:22:27;;;;;;;;;6.33;6.33;;;;;16.94;63.27;100932.50;4917498;29;9096;-77
2021/05/08 01:25:25;;;;;;;;;7.67;7.67;;;;;16.98;63.58;100927.00;4917729;29;9087;-75
2021/05/08 01:28:21;;;;;;;;;5.67;5.67;;;;;16.95;63.80;100921.00;4914182;29;9836;-75
2021/05/08 01:31:16;;;;;;;;;7.00;7.00;;;;;16.92;64.10;100918.91;4917604;29;8961;-75
2021/05/08 01:34:12;;;;;;;;;7.33;7.33;;;;;16.67;65.36;100920.38;4917715;29;9026;-76
2021/05/08 01:37:07;;;;;;;;;7.33;7.33;;;;;16.73;65.15;100938.50;4917433;29;9014;-75
2021/05/08 01:40:07;;;;;;;;;5.33;5.33;;;;;16.80;65.36;100937.84;4917505;29;9021;-75
2021/05/08 01:43:03;;;;;;;;;7.00;7.00;;;;;16.72;66.10;100925.69;4917301;29;9214;-75
2021/05/08 01:45:59;;;;;;;;;6.00;6.00;;;;;16.76;66.79;100926.56;4904931;29;8970;-76
2021/05/08 01:48:27;;;;;;;;;8.33;8.33;;;;;16.71;67.72;100920.47;4918452;29;8970;-77
2021/05/08 01:51:08;;;;;;;;;7.33;7.33;;;;;16.67;68.10;100914.78;4917956;29;9898;-77
2021/05/08 01:54:04;;;;;;;;;9.00;9.00;;;;;16.62;69.71;100901.91;4917214;29;9060;-78
2021/05/08 01:56:32;;;;;;;;;11.00;9.00;;;;;16.52;71.06;100893.31;4918200;29;9107;-78
2021/05/08 01:59:27;;;;;;;;;4.33;4.33;;;;;16.56;70.86;100894.19;4917246;29;9480;-78
2021/05/08 02:02:23;;;;;;;;;10.33;10.33;;;;;16.56;71.12;100885.81;4917041;29;9077;-78
2021/05/08 02:05:21;;;;;;;;;9.33;9.33;;;;;16.46;72.39;100875.22;4915918;29;9117;-77
2021/05/08 02:08:16;;;;;;;;;8.33;8.33;;;;;16.46;72.29;100866.84;4916214;29;9823;-78
2021/05/08 02:11:12;;;;;;;;;9.00;9.00;;;;;16.42;72.60;100858.44;4913031;29;9851;-78
2021/05/08 02:14:09;;;;;;;;;7.33;7.33;;;;;16.30;73.29;100859.34;4916890;29;9976;-77
2021/05/08 02:17:05;;;;;;;;;9.00;9.00;;;;;16.22;73.91;100854.00;4904435;29;9320;-77
2021/05/08 02:20:01;;;;;;;;;13.00;13.00;;;;;16.28;74.05;100858.13;4916963;29;9263;-78
2021/05/08 02:22:58;;;;;;;;;9.33;9.33;;;;;16.16;75.55;100853.47;4904060;29;9263;-78
2021/05/08 02:25:27;;;;;;;;;10.00;10.00;;;;;16.21;75.67;100841.22;4917828;29;9440;-78
2021/05/08 02:27:59;;;;;;;;;13.33;13.33;;;;;16.21;75.13;100844.00;4901807;29;9294;-78
2021/05/08 02:30:55;;;;;;;;;9.00;9.00;;;;;16.20;75.39;100840.41;4904022;29;9281;-78
2021/05/08 02:33:50;;;;;;;;;11.33;11.33;;;;;16.15;74.96;100835.09;4904198;29;9200;-78
2021/05/08 02:36:46;;;;;;;;;10.33;10.33;;;;;16.10;75.77;100847.38;4916448;29;10052;-78
2021/05/08 02:39:41;;;;;;;;;9.67;9.67;;;;;16.16;74.61;100842.28;4916492;29;9423;-77
2021/05/08 02:42:37;;;;;;;;;8.33;8.33;;;;;16.06;75.01;100837.31;4916433;29;9279;-78
2021/05/08 02:45:33;;;;;;;;;10.00;10.00;;;;;16.04;74.70;100851.63;4916502;29;9267;-78
2021/05/08 02:48:22;;;;;;;;;13.00;13.00;;;;;16.15;74.37;100828.72;4917407;29;9418;-77
2021/05/08 02:51:18;;;;;;;;;9.00;9.00;;;;;16.07;74.64;100824.97;4916907;29;9494;-77
2021/05/08 02:54:13;;;;;;;;;10.67;10.67;;;;;16.01;75.23;100827.22;4903468;29;9391;-78
2021/05/08 02:57:09;;;;;;;;;10.67;10.67;;;;;16.04;75.82;100822.91;4915185;29;9438;-77
2021/05/08 03:00:07;;;;;;;;;8.00;8.00;;;;;15.95;75.51;100825.06;4916217;29;9519;-76
2021/05/08 03:03:03;;;;;;;;;11.00;11.00;;;;;16.05;75.52;100816.16;4903198;29;9568;-77
2021/05/08 03:05:59;;;;;;;;;13.50;13.50;;;;;15.87;77.11;100807.38;4915924;29;9470;-77
2021/05/08 03:08:26;;;;;;;;;12.33;12.33;;;;;15.74;77.17;100812.28;4916870;29;9548;-76
2021/05/08 03:11:22;;;;;;;;;14.25;13.75;;;;;15.72;77.01;100805.44;4915891;29;10165;-77
2021/05/08 03:14:17;;;;;;;;;15.00;15.00;;;;;15.82;77.25;100804.88;4916001;29;10247;-77
2021/05/08 03:17:13;;;;;;;;;12.33;12.33;;;;;15.74;77.31;100817.84;4915768;29;9782;-77
2021/05/08 03:19:49;;;;;;;;;12.25;12.25;;;;;15.75;77.56;100813.88;4916795;29;9411;-77
2021/05/08 03:22:44;;;;;;;;;13.50;13.50;;;;;15.72;77.29;100803.47;4915936;29;9675;-77
2021/05/08 03:25:40;;;;;;;;;12.25;12.25;;;;;15.65;77.59;100808.88;4915840;29;9541;-76
2021/05/08 03:28:35;;;;;;;;;13.50;13.00;;;;;15.67;78.20;100808.53;4913125;29;9508;-77
2021/05/08 03:31:32;;;;;;;;;12.75;12.75;;;;;15.65;78.17;100805.28;4916336;29;10286;-78
2021/05/08 03:34:27;;;;;;;;;13.00;12.50;;;;;15.58;78.45;100787.19;4918390;29;9656;-77
2021/05/08 03:37:23;;;;;;;;;14.50;14.50;;;;;15.51;79.59;100789.00;4934850;29;10526;-76
2021/05/08 03:40:18;;;;;;;;;14.00;13.00;;;;;15.44;79.60;100792.41;4921334;29;9569;-77
2021/05/08 03:43:14;;;;;;;;;14.00;14.00;;;;;15.55;79.13;100806.59;4908667;29;9571;-77
2021/05/08 03:46:10;;;;;;;;;16.75;16.75;;;;;15.43;79.72;100804.75;4913059;29;9583;-77
2021/05/08 03:49:06;;;;;;;;;14.33;14.33;;;;;15.35;80.76;100807.72;4915645;29;9540;-76
2021/05/08 03:52:04;;;;;;;;;13.00;13.00;;;;;15.41;79.71;100803.47;4915380;29;9343;-77
2021/05/08 03:55:03;;;;;;;;;17.50;17.50;;;;;15.33;80.43;100788.53;4901879;29;9569;-76
2021/05/08 03:57:59;;;;;;;;;16.00;16.00;;;;;15.30;79.97;100801.22;4916178;29;9728;-76
2021/05/08 04:00:57;;;;;;;;;17.25;17.25;;;;;15.16;80.60;100816.78;4908438;29;9872;-78
2021/05/08 04:03:54;;;;;;;;;17.25;17.25;;;;;15.33;80.13;100815.59;4912945;29;9673;-77
2021/05/08 04:06:53;;;;;;;;;14.75;14.75;;;;;15.24;80.20;100816.59;4903104;29;9917;-78
2021/05/08 04:09:49;;;;;;;;;12.75;12.75;;;;;15.28;80.20;100805.56;4916624;29;9640;-77
2021/05/08 04:13:00;;;;;;;;;14.50;14.50;;;;;15.22;81.08;100805.00;4915110;29;9620;-77
2021/05/08 04:15:55;;;;;;;;;12.25;12.25;;;;;15.26;81.28;100805.91;4912844;29;9664;-77
2021/05/08 04:18:54;;;;;;;;;16.00;16.00;;;;;15.20;80.66;100807.34;4934762;29;9772;-78
2021/05/08 04:21:23;;;;;;;;;16.25;16.25;;;;;15.26;80.83;100810.69;4936857;29;9562;-78
2021/05/08 04:24:18;;;;;;;;;14.50;14.50;;;;;15.40;80.37;100799.88;4921558;29;9505;-78
2021/05/08 04:27:14;;;;;;;;;16.00;16.00;;;;;15.27;81.48;100788.03;4896220;29;10394;-78
2021/05/08 04:30:10;;;;;;;;;18.00;18.00;;;;;15.29;81.83;100804.38;4898143;29;9727;-78
2021/05/08 04:33:07;;;;;;;;;17.25;17.25;;;;;15.24;81.82;100813.81;4894453;29;10631;-77
2021/05/08 04:36:03;;;;;;;;;16.25;16.25;;;;;15.39;81.50;100786.31;4899957;29;9845;-78
2021/05/08 04:38:31;;;;;;;;;16.25;16.25;;;;;15.49;80.84;100791.34;4901002;29;9729;-78
2021/05/08 04:40:59;;;;;;;;;14.00;14.00;;;;;15.54;80.73;100808.59;4919292;29;10383;-77
2021/05/08 04:43:55;;;;;;;;;14.00;14.00;;;;;15.56;80.47;100781.19;4918423;29;9747;-78
2021/05/08 04:46:26;;;;;;;;;22.75;21.50;;;;;15.51;80.04;100803.75;4902172;29;9892;-77
2021/05/08 04:48:54;;;;;;;;;15.33;15.33;;;;;15.61;80.01;100787.63;4902414;29;9785;-78
2021/05/08 04:51:24;;;;;;;;;16.75;16.75;;;;;15.44;80.45;100794.41;4902781;29;9474;-77
2021/05/08 04:53:52;;;;;;;;;36.75;33.75;;;;;15.43;80.63;100806.72;4901259;29;9498;-75
2021/05/08 04:56:22;;;;;;;;;61.50;52.00;;;;;15.75;82.07;100783.22;4894402;29;10276;-77
2021/05/08 04:58:49;;;;;;;;;40.75;37.00;;;;;15.75;80.33;100785.19;4883575;29;12356;-77
2021/05/08 05:01:46;;;;;;;;;34.25;33.25;;;;;15.98;79.20;100790.91;4904313;29;10434;-76
2021/05/08 05:04:42;;;;;;;;;22.75;22.75;;;;;15.93;79.88;100791.97;4905460;29;10678;-77
2021/05/08 05:07:38;;;;;;;;;47.00;40.75;;;;;16.05;79.93;100786.28;4917905;29;9780;-76
2021/05/08 05:10:20;;;;;;;;;41.25;37.75;;;;;16.03;79.88;100774.69;4902438;29;10580;-76
2021/05/08 05:13:16;;;;;;;;;28.50;27.50;;;;;16.18;79.28;100774.97;4891554;29;11094;-76
2021/05/08 05:16:15;;;;;;;;;43.25;39.25;;;;;16.16;78.94;100775.34;4900071;29;10648;-76
2021/05/08 05:19:10;;;;;;;;;45.50;39.25;;;;;16.26;79.23;100776.75;4912607;29;10557;-75
2021/05/08 05:22:06;;;;;;;;;17.75;17.75;;;;;16.37;78.80;100773.00;4909345;29;11114;-76
2021/05/08 05:25:04;;;;;;;;;19.75;19.75;;;;;16.47;78.26;100766.00;4897409;29;10479;-76
2021/05/08 05:28:01;;;;;;;;;46.50;40.75;;;;;16.70;78.64;100768.06;4897507;29;9646;-77
2021/05/08 05:30:38;;;;;;;;;28.50;28.50;;;;;16.63;77.66;100757.53;4883027;29;10506;-74
2021/05/08 05:33:05;;;;;;;;;24.50;22.75;;;;;16.54;78.11;100763.34;4898168;29;9731;-77
2021/05/08 05:36:02;;;;;;;;;19.00;19.00;;;;;16.71;76.96;100759.31;4898578;29;9548;-77
2021/05/08 05:39:02;;;;;;;;;18.25;17.25;;;;;16.83;76.88;100759.13;4908669;29;10153;-78
2021/05/08 05:41:57;;;;;;;;;24.75;24.75;;;;;16.92;76.56;100754.09;4897907;29;10240;-76
2021/05/08 05:44:53;;;;;;;;;20.00;19.00;;;;;16.94;75.59;100754.56;4898833;29;9752;-76
2021/05/08 05:48:00;;;;;;;;;21.75;20.75;;;;;16.98;74.47;100754.59;4885747;29;10407;-78
2021/05/08 05:50:55;;;;;;;;;19.67;19.67;;;;;16.99;74.35;100744.25;4880283;29;9513;-76
2021/05/08 05:53:56;;;;;;;;;21.00;21.00;;;;;17.10;74.52;100748.84;4879757;29;9256;-76
2021/05/08 05:56:52;;;;;;;;;18.00;18.00;;;;;17.05;74.21;100729.59;4867506;29;9430;-76
2021/05/08 05:59:47;;;;;;;;;16.67;16.67;;;;;17.36;73.46;100731.28;4891202;29;9259;-77
2021/05/08 06:02:43;;;;;;;;;22.00;22.00;;;;;17.63;74.00;100725.66;4896813;29;9271;-76
2021/05/08 06:05:39;;;;;;;;;23.67;23.67;;;;;17.98;71.26;100728.97;4881279;29;9111;-74
2021/05/08 06:08:36;;;;;;;;;21.00;21.00;;;;;17.98;70.65;100726.19;4899780;29;9177;-75
2021/05/08 06:11:31;;;;;;;;;16.50;16.50;;;;;17.93;69.97;100726.50;4896271;29;9103;-76
2021/05/08 06:14:28;;;;;;;;;14.25;14.25;;;;;18.06;69.38;100727.06;4917654;29;8847;-75
2021/05/08 06:17:24;;;;;;;;;23.33;23.33;;;;;18.02;71.22;100727.06;4918535;29;8874;-75
2021/05/08 06:20:19;;;;;;;;;14.50;14.50;;;;;18.17;69.33;100707.59;4918380;29;8937;-75
2021/05/08 06:23:18;;;;;;;;;11.00;11.00;;;;;18.09;68.08;100695.53;4918857;29;8893;-75
2021/05/08 06:26:14;;;;;;;;;11.67;11.67;;;;;18.38;67.90;100695.84;4901187;29;8836;-76
2021/05/08 06:29:10;;;;;;;;;11.50;11.50;;;;;18.54;68.36;100705.63;4903875;29;8867;-75
2021/05/08 06:32:05;;;;;;;;;17.25;16.00;;;;;18.62;67.08;100689.69;4914965;29;9044;-76
2021/05/08 06:35:01;;;;;;;;;10.00;10.00;;;;;18.52;65.82;100688.41;4930763;29;8923;-77
2021/05/08 06:37:57;;;;;;;;;12.50;12.50;;;;;18.72;65.74;100694.63;4917974;29;8857;-76
2021/05/08 06:40:53;;;;;;;;;12.50;12.50;;;;;18.93;65.44;100694.00;4918569;29;9706;-76
2021/05/08 06:43:48;;;;;;;;;11.75;11.75;;;;;19.11;63.69;100689.34;4915087;29;8861;-75
2021/05/08 06:46:44;;;;;;;;;12.75;12.75;;;;;19.06;64.26;100681.31;4914577;29;9700;-76
2021/05/08 06:49:40;;;;;;;;;11.00;11.00;;;;;19.21;64.06;100687.00;4913568;29;8844;-75
2021/05/08 06:52:35;;;;;;;;;11.25;11.25;;;;;19.15;62.23;100697.78;4897908;29;8894;-76
2021/05/08 06:55:31;;;;;;;;;11.75;10.75;;;;;19.16;62.57;100699.38;4906680;29;8827;-75
2021/05/08 06:58:28;;;;;;;;;11.25;11.25;;;;;19.22;62.56;100689.44;4916244;29;8861;-76
2021/05/08 07:01:24;;;;;;;;;12.25;12.25;;;;;19.17;63.09;100687.00;4917876;29;8885;-76
2021/05/08 07:04:23;;;;;;;;;10.75;10.75;;;;;19.41;63.50;100671.53;4898088;29;8883;-77
2021/05/08 07:07:21;;;;;;;;;10.75;10.75;;;;;19.23;63.16;100677.00;4899401;29;8852;-74
2021/05/08 07:10:17;;;;;;;;;13.50;13.50;;;;;19.41;62.29;100682.75;4917776;29;8882;-76
2021/05/08 07:13:14;;;;;;;;;11.75;11.75;;;;;19.61;63.17;100670.06;4923368;29;8980;-74
2021/05/08 07:16:09;;;;;;;;;11.50;11.50;;;;;19.79;61.59;100666.56;4916707;29;8868;-76
2021/05/08 07:19:05;;;;;;;;;12.50;12.50;;;;;20.10;62.79;100667.88;4916690;29;8855;-74
2021/05/08 07:22:01;;;;;;;;;8.50;8.50;;;;;20.10;62.31;100668.69;4932009;29;9637;-76
2021/05/08 07:24:57;;;;;;;;;12.00;12.00;;;;;20.37;61.65;100668.34;4914737;29;8863;-75
2021/05/08 07:27:53;;;;;;;;;10.75;10.75;;;;;20.44;61.42;100662.75;4914946;29;8956;-76
2021/05/08 07:30:50;;;;;;;;;11.25;10.75;;;;;19.85;61.81;100656.53;4916386;29;8944;-77
2021/05/08 07:33:46;;;;;;;;;10.50;10.50;;;;;20.31;60.60;100645.44;4916405;29;8854;-76
2021/05/08 07:36:41;;;;;;;;;12.25;12.25;;;;;20.12;60.95;100640.19;4916002;29;8847;-76
2021/05/08 07:39:37;;;;;;;;;12.50;12.50;;;;;20.35;61.06;100639.84;4916164;29;9397;-76
2021/05/08 07:42:33;;;;;;;;;13.50;12.00;;;;;20.30;60.91;100643.84;4897858;29;8975;-77
2021/05/08 07:45:30;;;;;;;;;13.00;13.00;;;;;20.76;59.82;100637.50;4904411;29;8867;-76
2021/05/08 07:48:27;;;;;;;;;11.75;11.75;;;;;20.99;59.32;100632.25;4897312;29;8875;-75
2021/05/08 07:51:23;;;;;;;;;13.00;13.00;;;;;21.12;58.94;100629.84;4897285;29;8864;-76
2021/05/08 07:54:19;;;;;;;;;14.75;14.75;;;;;20.85;58.12;100632.25;4914564;29;8845;-75
2021/05/08 07:57:14;;;;;;;;;12.75;12.75;;;;;21.20;59.84;100622.19;4916314;29;8853;-73
2021/05/08 08:00:14;;;;;;;;;14.25;14.25;;;;;21.31;59.20;100625.78;4915962;29;8948;-75
2021/05/08 08:03:10;;;;;;;;;16.50;16.00;;;;;21.43;58.98;100613.31;4915961;29;8857;-75
2021/05/08 08:06:06;;;;;;;;;16.00;16.00;;;;;21.78;58.29;100612.41;4915393;29;8880;-75
2021/05/08 08:08:34;;;;;;;;;13.50;13.50;;;;;21.71;57.22;100609.59;4927897;29;8862;-75
2021/05/08 08:11:31;;;;;;;;;14.25;14.25;;;;;21.63;57.39;100612.44;4919129;29;8865;-74
2021/05/08 08:14:26;;;;;;;;;15.00;14.75;;;;;22.04;56.65;100605.41;4916890;29;8950;-74
2021/05/08 08:17:22;;;;;;;;;10.50;10.50;;;;;21.79;56.55;100603.53;4917032;29;8862;-73
2021/05/08 08:20:18;;;;;;;;;15.75;15.75;;;;;22.28;55.51;100601.66;4916189;29;8865;-74
2021/05/08 08:23:15;;;;;;;;;14.75;14.75;;;;;22.33;55.56;100603.25;4915627;29;8891;-72
2021/05/08 08:26:11;;;;;;;;;15.50;15.50;;;;;22.26;54.46;100603.28;4917583;29;8882;-75
2021/05/08 08:29:07;;;;;;;;;13.50;13.50;;;;;21.65;55.83;100598.75;4917971;29;8900;-75
2021/05/08 08:32:04;;;;;;;;;15.75;15.75;;;;;22.30;55.07;100609.69;4918290;29;8857;-73
2021/05/08 08:35:00;;;;;;;;;13.50;13.50;;;;;22.65;54.13;100603.00;4917117;29;8896;-74
2021/05/08 08:37:56;;;;;;;;;16.75;16.75;;;;;22.52;54.04;100602.69;4917175;29;8880;-74
2021/05/08 08:40:51;;;;;;;;;9.25;9.25;;;;;22.68;52.42;100608.56;4926112;29;8858;-73
2021/05/08 08:43:47;;;;;;;;;21.75;21.00;;;;;22.76;53.61;100598.84;4917056;29;8875;-72
2021/05/08 08:46:44;;;;;;;;;21.00;21.00;;;;;22.44;54.33;100607.56;4917665;29;9723;-74
2021/05/08 08:49:40;;;;;;;;;15.75;15.75;;;;;21.79;56.04;100608.38;4917723;29;8932;-74
2021/05/08 08:52:36;;;;;;;;;11.75;11.75;;;;;22.05;55.86;100595.75;4916279;29;8865;-73
2021/05/08 08:55:33;;;;;;;;;18.25;18.25;;;;;21.87;54.75;100593.03;4907402;29;8840;-72
2021/05/08 08:58:32;;;;;;;;;16.00;16.00;;;;;21.87;54.76;100593.84;4915551;29;8953;-73
2021/05/08 09:01:29;;;;;;;;;18.00;17.75;;;;;21.14;57.67;100596.47;4916687;29;8957;-75
2021/05/08 09:04:25;;;;;;;;;19.00;19.00;;;;;20.95;57.71;100600.56;4918095;29;8972;-74
2021/05/08 09:07:25;;;;;;;;;18.50;18.50;;;;;20.74;59.32;100623.03;4918946;29;8858;-74
2021/05/08 09:10:23;;;;;;;;;18.00;18.00;;;;;20.54;59.68;100629.06;4925720;29;9595;-74
2021/05/08 09:13:21;;;;;;;;;19.00;19.00;;;;;20.04;60.50;100635.78;4922448;29;8866;-75
2021/05/08 09:16:17;;;;;;;;;19.25;19.25;;;;;19.62;62.42;100645.63;4915394;29;8986;-75
2021/05/08 09:19:19;;;;;;;;;24.50;23.75;;;;;20.06;61.12;100647.41;4916419;29;8866;-75
2021/05/08 09:22:23;;;;;;;;;21.75;21.75;;;;;19.68;62.65;100653.25;4920183;29;9012;-74
2021/05/08 09:25:19;;;;;;;;;16.50;16.50;;;;;19.67;63.21;100659.28;4917249;29;9605;-74
2021/05/08 09:28:17;;;;;;;;;20.50;20.00;;;;;20.05;62.67;100652.22;4909067;29;9633;-74
2021/05/08 09:31:13;;;;;;;;;21.75;20.50;;;;;19.86;63.30;100628.09;4917664;29;8854;-74
2021/05/08 09:34:17;;;;;;;;;21.25;19.25;;;;;19.78;63.13;100636.88;4916291;29;8851;-75
2021/05/08 09:37:18;;;;;;;;;24.25;23.50;;;;;20.29;62.28;100639.44;4917603;29;8865;-74
2021/05/08 09:40:25;;;;;;;;;21.00;21.00;;;;;20.54;60.93;100640.28;4917947;29;8857;-73
2021/05/08 09:43:21;;;;;;;;;21.75;21.75;;;;;20.36;62.08;100633.81;4921709;29;8866;-74
2021/05/08 09:46:25;;;;;;;;;19.75;19.75;;;;;20.63;61.12;100622.25;4936608;29;9017;-75
2021/05/08 09:49:21;;;;;;;;;17.25;17.25;;;;;20.50;60.51;100613.41;4936949;29;8855;-73
2021/05/08 09:52:23;;;;;;;;;21.75;21.25;;;;;20.62;60.59;100615.81;4937230;29;8889;-74
2021/05/08 09:55:25;;;;;;;;;21.00;21.00;;;;;20.64;59.68;100616.22;4935040;29;8859;-73
2021/05/08 09:58:22;;;;;;;;;18.50;18.50;;;;;20.50;60.57;100608.59;4929388;29;8859;-73
2021/05/08 10:01:18;;;;;;;;;22.00;22.00;;;;;20.67;59.65;100612.59;4924180;28;8843;-72
2021/05/08 10:04:34;;;;;;;;;21.75;20.75;;;;;20.41;61.00;100613.78;4923162;29;8866;-73
2021/05/08 10:07:29;;;;;;;;;22.75;22.25;;;;;20.61;60.49;100607.78;4929578;28;9623;-73
2021/05/08 10:10:25;;;;;;;;;20.00;20.00;;;;;20.33;61.17;100605.75;4920087;29;8912;-74
2021/05/08 10:13:22;;;;;;;;;17.00;17.00;;;;;20.31;61.16;100610.94;4934028;29;8835;-73
2021/05/08 10:16:18;;;;;;;;;18.00;18.00;;;;;20.45;61.13;100597.75;4918041;29;8974;-73
2021/05/08 10:19:15;;;;;;;;;20.75;20.75;;;;;20.50;61.11;100602.19;4917702;29;8954;-73
2021/05/08 10:22:11;;;;;;;;;23.25;23.00;;;;;20.58;61.02;100597.38;4920593;29;8846;-73
2021/05/08 10:25:08;;;;;;;;;20.25;20.25;;;;;20.56;60.68;100611.81;4916413;29;8857;-73
2021/05/08 10:28:05;;;;;;;;;21.25;21.25;;;;;20.49;60.91;100607.00;4915445;29;8888;-73
2021/05/08 10:31:01;;;;;;;;;18.75;18.75;;;;;20.60;60.05;100609.78;4915711;29;8976;-74
2021/05/08 10:33:56;;;;;;;;;24.50;24.50;;;;;20.78;60.03;100605.00;4912534;29;8868;-74
2021/05/08 10:36:52;;;;;;;;;18.25;18.25;;;;;21.00;59.98;100602.13;4912280;29;8857;-74
2021/05/08 10:40:00;;;;;;;;;34.50;32.25;;;;;21.13;60.46;100606.13;4916895;29;8940;-74
2021/05/08 10:42:55;;;;;;;;;30.00;28.75;;;;;21.16;60.81;100605.31;4895883;29;8899;-73
2021/05/08 10:45:57;;;;;;;;;20.00;20.00;;;;;20.98;59.11;100615.81;4895284;29;8863;-74
2021/05/08 10:49:12;;;;;;;;;16.75;16.75;;;;;20.74;59.80;100606.19;4908110;29;8849;-74
2021/05/08 10:52:08;;;;;;;;;22.75;22.75;;;;;20.91;59.94;100613.00;4918536;29;8853;-74
2021/05/08 10:55:20;;;;;;;;;24.50;24.50;;;;;21.07;60.89;100608.53;4904653;29;8968;-74
2021/05/08 10:58:22;;;;;;;;;24.25;23.75;;;;;21.29;61.99;100602.91;4922650;29;8854;-74
2021/05/08 11:01:38;;;;;;;;;23.25;23.25;;;;;21.21;61.84;100596.47;4935643;29;8869;-74
2021/05/08 11:05:18;;;;;;;;;21.50;21.50;;;;;21.27;61.22;100594.06;4918221;29;8928;-73
2021/05/08 11:08:26;;;;;;;;;24.75;24.75;;;;;21.39;60.79;100582.38;4918955;29;8843;-74
2021/05/08 11:11:27;;;;;;;;;22.50;22.50;;;;;21.44;60.85;100584.78;4925458;29;8890;-72
2021/05/08 11:14:57;;;;;;;;;20.00;20.00;;;;;21.45;59.91;100563.88;4929987;28;8928;-72
2021/05/08 11:18:02;;;;;;;;;20.00;20.00;;;;;21.39;59.74;100562.69;4903738;29;8858;-73
2021/05/08 11:21:02;;;;;;;;;21.25;21.25;;;;;21.32;60.94;100562.75;4918468;29;8843;-73
2021/05/08 11:24:04;;;;;;;;;115.75;96.00;;;;;21.24;61.44;100547.88;4919458;29;8896;-73
2021/05/08 11:27:00;;;;;;;;;23.25;23.25;;;;;21.21;62.37;100534.59;4935783;29;11630;-73
2021/05/08 11:30:02;;;;;;;;;26.50;26.50;;;;;21.32;63.76;100529.00;4934929;29;8878;-73
2021/05/08 11:32:58;;;;;;;;;31.25;30.25;;;;;21.27;64.93;100532.19;4917484;29;8850;-74
2021/05/08 11:36:00;;;;;;;;;23.25;22.50;;;;;21.23;65.25;100551.88;4916893;29;8900;-74
2021/05/08 11:39:34;;;;;;;;;27.00;26.00;;;;;21.22;66.32;100546.66;4916092;29;8868;-74
2021/05/08 11:42:31;;;;;;;;;29.50;29.50;;;;;21.29;66.96;100515.72;4898132;29;8857;-74
2021/05/08 11:45:39;;;;;;;;;18.50;18.50;;;;;21.10;62.35;100516.97;4916255;29;8849;-74
2021/05/08 11:48:34;;;;;;;;;35.50;33.00;;;;;21.07;64.37;100529.03;4897203;29;9614;-75
2021/05/08 11:51:30;;;;;;;;;33.50;31.50;;;;;21.02;67.39;100521.03;4897276;29;9575;-74
2021/05/08 11:54:27;;;;;;;;;28.00;28.00;;;;;21.17;67.79;100513.34;4897296;29;8884;-72
2021/05/08 11:57:23;;;;;;;;;27.75;27.75;;;;;21.13;66.14;100513.34;4897298;29;8990;-74
2021/05/08 12:00:24;;;;;;;;;53.00;43.00;;;;;21.16;65.08;100508.91;4897114;29;8974;-73
2021/05/08 12:03:19;;;;;;;;;27.00;27.00;;;;;21.27;65.34;100499.25;4904510;29;9396;-75
2021/05/08 12:06:16;;;;;;;;;23.75;23.75;;;;;21.59;64.74;100506.75;4923093;29;8940;-75
2021/05/08 12:09:12;;;;;;;;;18.50;18.50;;;;;21.68;64.24;100492.22;4934759;29;8839;-74
2021/05/08 12:12:08;;;;;;;;;22.00;22.00;;;;;21.68;63.21;100490.19;4934560;29;8981;-74
2021/05/08 12:15:05;;;;;;;;;27.50;26.25;;;;;21.67;64.05;100488.59;4934954;29;8863;-76
2021/05/08 12:18:03;;;;;;;;;41.00;33.75;;;;;21.62;64.24;100478.59;4934235;29;8838;-74
2021/05/08 12:21:01;;;;;;;;;18.25;18.25;;;;;21.56;63.71;100471.00;4934913;28;8865;-74
2021/05/08 12:23:57;;;;;;;;;17.50;16.25;;;;;21.43;62.30;100478.28;4935577;29;8905;-75
2021/05/08 12:26:53;;;;;;;;;19.50;18.00;;;;;21.47;61.33;100488.31;4932212;29;8834;-75
2021/05/08 12:29:57;;;;;;;;;59.75;42.75;;;;;21.30;63.16;100480.75;4934453;29;9059;-75
2021/05/08 12:32:53;;;;;;;;;132.75;80.25;;;;;21.30;63.10;100487.19;4931003;29;9499;-75
2021/05/08 12:35:54;;;;;;;;;22.00;22.00;;;;;21.26;63.08;100482.78;4927137;29;10458;-74
2021/05/08 12:38:53;;;;;;;;;48.50;37.50;;;;;21.16;63.20;100500.47;4927607;29;8869;-75
2021/05/08 12:41:56;;;;;;;;;19.25;19.25;;;;;21.12;63.86;100486.44;4931103;29;8965;-74
2021/05/08 12:44:52;;;;;;;;;20.00;19.50;;;;;21.16;63.66;100506.88;4934469;29;8851;-75
2021/05/08 12:47:48;;;;;;;;;26.00;26.00;;;;;21.07;64.70;100500.91;4896436;29;8868;-74
2021/05/08 12:50:43;;;;;;;;;18.00;18.00;;;;;21.05;66.26;100492.09;4897089;29;8859;-74
2021/05/08 12:53:39;;;;;;;;;19.50;19.50;;;;;20.87;67.31;100503.41;4900482;29;8852;-73
2021/05/08 12:56:34;;;;;;;;;13.25;13.25;;;;;20.80;67.15;100511.84;4907512;29;8842;-74
2021/05/08 12:59:31;;;;;;;;;20.00;20.00;;;;;20.67;67.46;100514.25;4937939;29;8835;-74
2021/05/08 13:02:28;;;;;;;;;29.75;29.50;;;;;20.63;67.30;100521.91;4932915;29;8853;-75
2021/05/08 13:05:26;;;;;;;;;16.50;16.00;;;;;20.44;68.83;100513.91;4919040;29;8861;-75
2021/05/08 13:08:59;;;;;;;;;13.75;13.75;;;;;20.13;70.04;100505.03;4919167;29;8837;-75
2021/05/08 13:11:54;;;;;;;;;16.50;16.50;;;;;19.97;71.15;100505.44;4918829;29;9681;-76
2021/05/08 13:14:39;;;;;;;;;14.75;14.75;;;;;19.98;71.03;100506.22;4919065;29;8894;-76
2021/05/08 13:17:34;;;;;;;;;46.67;40.00;;;;;19.97;70.79;100508.25;4919040;29;8849;-76
2021/05/08 13:20:33;;;;;;;;;93.25;86.75;;;;;19.93;71.18;100515.84;4918599;29;9418;-76
2021/05/08 13:23:28;;;;;;;;;29.33;29.33;;;;;20.02;70.87;100515.47;4936858;29;11786;-76
2021/05/08 13:26:24;;;;;;;;;19.50;19.50;;;;;19.86;71.93;100510.25;4919076;29;9108;-76